sensor_id;sensor_type;location;lat;lon;timestamp;P1;durP1;ratioP1;P2;durP2;ratioP2
12719;SDS011;6424;48.520;11.228;2023-04-10T00:02:20;12.80;;;10.80;;
12719;SDS011;6424;48.520;11.228;2023-04-10T00:05:01;13.70;;;10.70;;
12719;SDS011;6424;48.520;11.228;2023-04-10T00:07:41;12.93;;;10.13;;
12719;SDS011;6424;48.520;11.228;2023-04-10T00:10:22;13.37;;;11.10;;
12719;SDS011;6424;48.520;11.228;2023-04-10T00:13:05;14.40;;;10.70;;
12719;SDS011;6424;48.520;11.228;2023-04-10T00:15:46;12.77;;;10.57;;
12719;SDS011;6424;48.520;11.228;2023-04-10T00:18:27;15.10;;;11.70;;
12719;SDS011;6424;48.520;11.228;2023-04-10T00:20:53;14.83;;;11.10;;
12719;SDS011;6424;48.520;11.228;2023-04-10T00:23:34;16.83;;;12.60;;
12719;SDS011;6424;48.520;11.228;2023-04-10T00:26:16;14.07;;;11.27;;
12719;SDS011;6424;48.520;11.228;2023-04-10T00:28:57;14.53;;;11.20;;
12719;SDS011;6424;48.520;11.228;2023-04-10T00:31:38;14.17;;;11.50;;
12719;SDS011;6424;48.520;11.228;2023-04-10T00:34:19;14.57;;;11.20;;
12719;SDS011;6424;48.520;11.228;2023-04-10T00:36:45;13.67;;;10.37;;
12719;SDS011;6424;48.520;11.228;2023-04-10T00:39:28;12.93;;;10.57;;
12719;SDS011;6424;48.520;11.228;2023-04-10T00:42:09;12.90;;;10.40;;
12719;SDS011;6424;48.520;11.228;2023-04-10T00:44:50;14.97;;;12.20;;
12719;SDS011;6424;48.520;11.228;2023-04-10T00:47:31;14.73;;;11.10;;
12719;SDS011;6424;48.520;11.228;2023-04-10T00:50:14;13.87;;;11.07;;
12719;SDS011;6424;48.520;11.228;2023-04-10T00:52:55;13.60;;;10.67;;
12719;SDS011;6424;48.520;11.228;2023-04-10T00:55:22;14.33;;;10.80;;
12719;SDS011;6424;48.520;11.228;2023-04-10T00:58:03;14.70;;;11.63;;
12719;SDS011;6424;48.520;11.228;2023-04-10T01:00:45;15.40;;;11.47;;
12719;SDS011;6424;48.520;11.228;2023-04-10T01:03:27;15.57;;;12.53;;
12719;SDS011;6424;48.520;11.228;2023-04-10T01:09:04;15.40;;;12.50;;
12719;SDS011;6424;48.520;11.228;2023-04-10T01:11:54;16.33;;;12.73;;
12719;SDS011;6424;48.520;11.228;2023-04-10T01:20:38;17.43;;;13.03;;
12719;SDS011;6424;48.520;11.228;2023-04-10T01:29:28;17.07;;;12.60;;
12719;SDS011;6424;48.520;11.228;2023-04-10T01:32:16;17.47;;;13.60;;
12719;SDS011;6424;48.520;11.228;2023-04-10T01:34:59;17.80;;;13.70;;
12719;SDS011;6424;48.520;11.228;2023-04-10T01:37:46;18.53;;;13.10;;
12719;SDS011;6424;48.520;11.228;2023-04-10T01:40:30;18.23;;;13.43;;
12719;SDS011;6424;48.520;11.228;2023-04-10T01:43:12;18.77;;;13.37;;
12719;SDS011;6424;48.520;11.228;2023-04-10T01:45:52;15.77;;;12.60;;
12719;SDS011;6424;48.520;11.228;2023-04-10T01:48:34;17.93;;;11.80;;
12719;SDS011;6424;48.520;11.228;2023-04-10T01:51:15;14.77;;;12.07;;
12719;SDS011;6424;48.520;11.228;2023-04-10T01:53:58;15.90;;;12.03;;
12719;SDS011;6424;48.520;11.228;2023-04-10T01:56:40;14.77;;;12.07;;
12719;SDS011;6424;48.520;11.228;2023-04-10T01:59:21;16.23;;;12.10;;
12719;SDS011;6424;48.520;11.228;2023-04-10T02:02:02;15.97;;;12.27;;
12719;SDS011;6424;48.520;11.228;2023-04-10T02:04:43;14.27;;;11.37;;
12719;SDS011;6424;48.520;11.228;2023-04-10T02:07:34;13.97;;;10.47;;
12719;SDS011;6424;48.520;11.228;2023-04-10T02:13:40;11.93;;;9.43;;
12719;SDS011;6424;48.520;11.228;2023-04-10T02:16:22;14.77;;;11.33;;
12719;SDS011;6424;48.520;11.228;2023-04-10T02:19:03;12.90;;;10.80;;
12719;SDS011;6424;48.520;11.228;2023-04-10T02:21:31;15.93;;;11.10;;
12719;SDS011;6424;48.520;11.228;2023-04-10T02:24:12;14.20;;;11.27;;
12719;SDS011;6424;48.520;11.228;2023-04-10T02:26:53;15.67;;;11.40;;
12719;SDS011;6424;48.520;11.228;2023-04-10T02:29:34;14.60;;;12.13;;
12719;SDS011;6424;48.520;11.228;2023-04-10T02:32:15;16.83;;;12.30;;
12719;SDS011;6424;48.520;11.228;2023-04-10T02:34:56;15.20;;;11.80;;
12719;SDS011;6424;48.520;11.228;2023-04-10T02:37:37;17.77;;;12.27;;
12719;SDS011;6424;48.520;11.228;2023-04-10T02:40:18;17.03;;;12.77;;
12719;SDS011;6424;48.520;11.228;2023-04-10T02:42:59;16.83;;;12.50;;
12719;SDS011;6424;48.520;11.228;2023-04-10T02:45:40;16.00;;;11.13;;
12719;SDS011;6424;48.520;11.228;2023-04-10T02:48:21;12.37;;;9.97;;
12719;SDS011;6424;48.520;11.228;2023-04-10T02:51:02;17.13;;;12.57;;
12719;SDS011;6424;48.520;11.228;2023-04-10T02:53:43;12.83;;;10.23;;
12719;SDS011;6424;48.520;11.228;2023-04-10T02:56:24;14.77;;;11.47;;
12719;SDS011;6424;48.520;11.228;2023-04-10T02:58:51;13.67;;;10.47;;
12719;SDS011;6424;48.520;11.228;2023-04-10T03:01:32;17.50;;;11.33;;
12719;SDS011;6424;48.520;11.228;2023-04-10T03:04:12;14.10;;;11.47;;
12719;SDS011;6424;48.520;11.228;2023-04-10T03:06:53;15.23;;;11.50;;
12719;SDS011;6424;48.520;11.228;2023-04-10T03:09:20;15.53;;;11.93;;
12719;SDS011;6424;48.520;11.228;2023-04-10T03:12:00;17.70;;;12.97;;
12719;SDS011;6424;48.520;11.228;2023-04-10T03:14:41;16.17;;;11.97;;
12719;SDS011;6424;48.520;11.228;2023-04-10T03:17:22;14.43;;;11.60;;
12719;SDS011;6424;48.520;11.228;2023-04-10T03:20:03;15.80;;;12.17;;
12719;SDS011;6424;48.520;11.228;2023-04-10T03:22:44;16.37;;;11.67;;
12719;SDS011;6424;48.520;11.228;2023-04-10T03:25:25;18.67;;;13.37;;
12719;SDS011;6424;48.520;11.228;2023-04-10T03:28:06;19.40;;;12.90;;
12719;SDS011;6424;48.520;11.228;2023-04-10T03:30:47;15.90;;;12.37;;
12719;SDS011;6424;48.520;11.228;2023-04-10T03:33:29;19.57;;;13.47;;
12719;SDS011;6424;48.520;11.228;2023-04-10T03:36:10;16.40;;;12.07;;
12719;SDS011;6424;48.520;11.228;2023-04-10T03:38:51;16.20;;;11.80;;
12719;SDS011;6424;48.520;11.228;2023-04-10T03:41:32;15.60;;;12.53;;
12719;SDS011;6424;48.520;11.228;2023-04-10T03:44:13;17.27;;;13.30;;
12719;SDS011;6424;48.520;11.228;2023-04-10T03:46:53;20.70;;;15.40;;
12719;SDS011;6424;48.520;11.228;2023-04-10T03:49:34;21.77;;;15.90;;
12719;SDS011;6424;48.520;11.228;2023-04-10T03:52:15;23.63;;;16.97;;
12719;SDS011;6424;48.520;11.228;2023-04-10T03:54:56;27.17;;;17.63;;
12719;SDS011;6424;48.520;11.228;2023-04-10T03:57:37;25.70;;;17.60;;
12719;SDS011;6424;48.520;11.228;2023-04-10T04:00:18;23.70;;;17.03;;
12719;SDS011;6424;48.520;11.228;2023-04-10T04:02:59;26.17;;;18.57;;
12719;SDS011;6424;48.520;11.228;2023-04-10T04:05:42;20.07;;;15.50;;
12719;SDS011;6424;48.520;11.228;2023-04-10T04:08:22;18.27;;;13.70;;
12719;SDS011;6424;48.520;11.228;2023-04-10T04:11:03;16.63;;;12.70;;
12719;SDS011;6424;48.520;11.228;2023-04-10T04:13:45;17.37;;;13.57;;
12719;SDS011;6424;48.520;11.228;2023-04-10T04:16:25;18.17;;;13.40;;
12719;SDS011;6424;48.520;11.228;2023-04-10T04:19:06;19.03;;;14.40;;
12719;SDS011;6424;48.520;11.228;2023-04-10T04:21:32;16.77;;;11.90;;
12719;SDS011;6424;48.520;11.228;2023-04-10T04:24:13;21.13;;;15.03;;
12719;SDS011;6424;48.520;11.228;2023-04-10T04:26:53;19.17;;;13.10;;
12719;SDS011;6424;48.520;11.228;2023-04-10T04:29:35;19.87;;;13.83;;
12719;SDS011;6424;48.520;11.228;2023-04-10T04:32:16;15.27;;;12.23;;
12719;SDS011;6424;48.520;11.228;2023-04-10T04:34:57;18.63;;;13.70;;
12719;SDS011;6424;48.520;11.228;2023-04-10T04:37:37;17.53;;;13.80;;
12719;SDS011;6424;48.520;11.228;2023-04-10T04:40:18;24.43;;;15.97;;
12719;SDS011;6424;48.520;11.228;2023-04-10T04:42:59;20.20;;;14.23;;
12719;SDS011;6424;48.520;11.228;2023-04-10T04:45:40;16.87;;;12.70;;
12719;SDS011;6424;48.520;11.228;2023-04-10T04:48:20;16.73;;;12.70;;
12719;SDS011;6424;48.520;11.228;2023-04-10T04:51:01;16.33;;;12.97;;
12719;SDS011;6424;48.520;11.228;2023-04-10T04:53:42;18.00;;;13.00;;
12719;SDS011;6424;48.520;11.228;2023-04-10T04:56:23;17.13;;;12.47;;
12719;SDS011;6424;48.520;11.228;2023-04-10T04:59:04;20.40;;;14.70;;
12719;SDS011;6424;48.520;11.228;2023-04-10T05:01:44;22.10;;;16.70;;
12719;SDS011;6424;48.520;11.228;2023-04-10T05:04:10;20.90;;;15.50;;
12719;SDS011;6424;48.520;11.228;2023-04-10T05:06:51;20.23;;;14.30;;
12719;SDS011;6424;48.520;11.228;2023-04-10T05:09:32;14.70;;;11.50;;
12719;SDS011;6424;48.520;11.228;2023-04-10T05:12:12;14.00;;;11.53;;
12719;SDS011;6424;48.520;11.228;2023-04-10T05:14:53;13.23;;;10.00;;
12719;SDS011;6424;48.520;11.228;2023-04-10T05:17:34;13.07;;;10.23;;
12719;SDS011;6424;48.520;11.228;2023-04-10T05:20:15;12.87;;;10.33;;
12719;SDS011;6424;48.520;11.228;2023-04-10T05:22:56;13.00;;;9.73;;
12719;SDS011;6424;48.520;11.228;2023-04-10T05:25:37;11.50;;;9.97;;
12719;SDS011;6424;48.520;11.228;2023-04-10T05:28:18;10.27;;;9.27;;
12719;SDS011;6424;48.520;11.228;2023-04-10T05:30:58;11.13;;;9.70;;
12719;SDS011;6424;48.520;11.228;2023-04-10T05:33:39;11.40;;;10.20;;
12719;SDS011;6424;48.520;11.228;2023-04-10T05:36:20;11.00;;;9.80;;
12719;SDS011;6424;48.520;11.228;2023-04-10T05:39:01;11.37;;;10.23;;
12719;SDS011;6424;48.520;11.228;2023-04-10T05:41:42;10.17;;;8.63;;
12719;SDS011;6424;48.520;11.228;2023-04-10T05:44:22;12.07;;;9.83;;
12719;SDS011;6424;48.520;11.228;2023-04-10T05:47:03;10.70;;;9.03;;
12719;SDS011;6424;48.520;11.228;2023-04-10T05:49:44;12.10;;;9.80;;
12719;SDS011;6424;48.520;11.228;2023-04-10T05:52:25;10.83;;;9.70;;
12719;SDS011;6424;48.520;11.228;2023-04-10T05:55:06;10.40;;;9.33;;
12719;SDS011;6424;48.520;11.228;2023-04-10T05:57:47;10.77;;;9.67;;
12719;SDS011;6424;48.520;11.228;2023-04-10T06:00:30;10.57;;;9.47;;
12719;SDS011;6424;48.520;11.228;2023-04-10T06:03:11;10.93;;;9.83;;
12719;SDS011;6424;48.520;11.228;2023-04-10T06:05:52;10.50;;;9.50;;
12719;SDS011;6424;48.520;11.228;2023-04-10T06:08:33;11.10;;;10.00;;
12719;SDS011;6424;48.520;11.228;2023-04-10T06:10:59;12.50;;;11.27;;
12719;SDS011;6424;48.520;11.228;2023-04-10T06:13:39;12.87;;;11.43;;
12719;SDS011;6424;48.520;11.228;2023-04-10T06:16:20;12.17;;;10.97;;
12719;SDS011;6424;48.520;11.228;2023-04-10T06:19:01;11.70;;;10.50;;
12719;SDS011;6424;48.520;11.228;2023-04-10T06:21:42;12.47;;;11.17;;
12719;SDS011;6424;48.520;11.228;2023-04-10T06:24:22;11.87;;;10.67;;
12719;SDS011;6424;48.520;11.228;2023-04-10T06:27:03;12.90;;;11.60;;
12719;SDS011;6424;48.520;11.228;2023-04-10T06:29:44;12.83;;;11.33;;
12719;SDS011;6424;48.520;11.228;2023-04-10T06:32:10;12.57;;;10.90;;
12719;SDS011;6424;48.520;11.228;2023-04-10T06:34:51;12.07;;;10.60;;
12719;SDS011;6424;48.520;11.228;2023-04-10T06:37:32;11.60;;;10.33;;
12719;SDS011;6424;48.520;11.228;2023-04-10T06:40:13;12.00;;;10.60;;
12719;SDS011;6424;48.520;11.228;2023-04-10T06:42:55;12.73;;;10.97;;
12719;SDS011;6424;48.520;11.228;2023-04-10T06:45:21;11.53;;;10.20;;
12719;SDS011;6424;48.520;11.228;2023-04-10T06:48:02;11.10;;;10.00;;
12719;SDS011;6424;48.520;11.228;2023-04-10T06:50:43;11.83;;;10.27;;
12719;SDS011;6424;48.520;11.228;2023-04-10T06:53:24;14.10;;;11.87;;
12719;SDS011;6424;48.520;11.228;2023-04-10T06:56:06;12.00;;;10.53;;
12719;SDS011;6424;48.520;11.228;2023-04-10T06:58:47;13.37;;;11.00;;
12719;SDS011;6424;48.520;11.228;2023-04-10T07:01:28;12.50;;;10.57;;
12719;SDS011;6424;48.520;11.228;2023-04-10T07:04:08;12.47;;;10.30;;
12719;SDS011;6424;48.520;11.228;2023-04-10T07:06:49;12.10;;;10.87;;
12719;SDS011;6424;48.520;11.228;2023-04-10T07:09:30;12.67;;;11.13;;
12719;SDS011;6424;48.520;11.228;2023-04-10T07:12:11;12.20;;;10.17;;
12719;SDS011;6424;48.520;11.228;2023-04-10T07:14:52;12.23;;;10.50;;
12719;SDS011;6424;48.520;11.228;2023-04-10T07:17:32;11.20;;;10.03;;
12719;SDS011;6424;48.520;11.228;2023-04-10T07:20:13;12.87;;;11.23;;
12719;SDS011;6424;48.520;11.228;2023-04-10T07:22:54;12.13;;;10.63;;
12719;SDS011;6424;48.520;11.228;2023-04-10T07:25:35;13.43;;;11.33;;
12719;SDS011;6424;48.520;11.228;2023-04-10T07:28:16;11.13;;;9.87;;
12719;SDS011;6424;48.520;11.228;2023-04-10T07:30:57;12.40;;;11.10;;
12719;SDS011;6424;48.520;11.228;2023-04-10T07:33:38;12.40;;;11.10;;
12719;SDS011;6424;48.520;11.228;2023-04-10T07:36:19;11.77;;;10.57;;
12719;SDS011;6424;48.520;11.228;2023-04-10T07:38:59;11.80;;;10.60;;
12719;SDS011;6424;48.520;11.228;2023-04-10T07:41:40;11.53;;;10.27;;
12719;SDS011;6424;48.520;11.228;2023-04-10T07:44:22;12.40;;;11.10;;
12719;SDS011;6424;48.520;11.228;2023-04-10T07:47:05;12.60;;;11.13;;
12719;SDS011;6424;48.520;11.228;2023-04-10T07:49:45;12.70;;;11.40;;
12719;SDS011;6424;48.520;11.228;2023-04-10T07:52:26;12.63;;;11.27;;
12719;SDS011;6424;48.520;11.228;2023-04-10T07:55:07;11.77;;;10.57;;
12719;SDS011;6424;48.520;11.228;2023-04-10T07:57:48;12.73;;;11.43;;
12719;SDS011;6424;48.520;11.228;2023-04-10T08:00:16;12.77;;;11.47;;
12719;SDS011;6424;48.520;11.228;2023-04-10T08:02:57;13.33;;;11.80;;
12719;SDS011;6424;48.520;11.228;2023-04-10T08:05:38;13.73;;;12.23;;
12719;SDS011;6424;48.520;11.228;2023-04-10T08:08:18;12.43;;;11.13;;
12719;SDS011;6424;48.520;11.228;2023-04-10T08:10:59;13.30;;;11.83;;
12719;SDS011;6424;48.520;11.228;2023-04-10T08:13:40;11.70;;;10.50;;
12719;SDS011;6424;48.520;11.228;2023-04-10T08:16:24;11.70;;;10.50;;
12719;SDS011;6424;48.520;11.228;2023-04-10T08:19:06;11.73;;;10.13;;
12719;SDS011;6424;48.520;11.228;2023-04-10T08:21:47;13.00;;;11.60;;
12719;SDS011;6424;48.520;11.228;2023-04-10T08:24:28;11.83;;;10.57;;
12719;SDS011;6424;48.520;11.228;2023-04-10T08:27:08;12.10;;;10.80;;
12719;SDS011;6424;48.520;11.228;2023-04-10T08:29:49;12.17;;;10.40;;
12719;SDS011;6424;48.520;11.228;2023-04-10T08:32:30;11.80;;;10.33;;
12719;SDS011;6424;48.520;11.228;2023-04-10T08:35:11;11.27;;;10.10;;
12719;SDS011;6424;48.520;11.228;2023-04-10T08:37:37;11.03;;;9.93;;
12719;SDS011;6424;48.520;11.228;2023-04-10T08:40:17;11.20;;;10.00;;
12719;SDS011;6424;48.520;11.228;2023-04-10T08:42:58;11.20;;;10.03;;
12719;SDS011;6424;48.520;11.228;2023-04-10T08:45:25;10.90;;;9.80;;
12719;SDS011;6424;48.520;11.228;2023-04-10T08:48:05;10.67;;;9.57;;
12719;SDS011;6424;48.520;11.228;2023-04-10T08:50:49;11.17;;;9.50;;
12719;SDS011;6424;48.520;11.228;2023-04-10T08:53:30;10.13;;;9.07;;
12719;SDS011;6424;48.520;11.228;2023-04-10T08:56:16;10.67;;;8.50;;
12719;SDS011;6424;48.520;11.228;2023-04-10T08:58:57;9.13;;;8.23;;
12719;SDS011;6424;48.520;11.228;2023-04-10T09:01:40;8.47;;;7.40;;
12719;SDS011;6424;48.520;11.228;2023-04-10T09:04:22;8.90;;;8.00;;
12719;SDS011;6424;48.520;11.228;2023-04-10T09:07:04;8.40;;;7.47;;
12719;SDS011;6424;48.520;11.228;2023-04-10T09:09:45;9.23;;;8.00;;
12719;SDS011;6424;48.520;11.228;2023-04-10T09:12:26;8.90;;;8.00;;
12719;SDS011;6424;48.520;11.228;2023-04-10T09:15:07;9.50;;;8.57;;
12719;SDS011;6424;48.520;11.228;2023-04-10T09:17:32;9.27;;;8.37;;
12719;SDS011;6424;48.520;11.228;2023-04-10T09:20:20;8.47;;;7.63;;
12719;SDS011;6424;48.520;11.228;2023-04-10T09:23:06;10.30;;;8.03;;
12719;SDS011;6424;48.520;11.228;2023-04-10T09:26:20;8.97;;;8.07;;
12719;SDS011;6424;48.520;11.228;2023-04-10T09:29:08;8.50;;;7.30;;
12719;SDS011;6424;48.520;11.228;2023-04-10T09:31:51;8.30;;;7.40;;
12719;SDS011;6424;48.520;11.228;2023-04-10T09:34:32;7.50;;;6.70;;
12719;SDS011;6424;48.520;11.228;2023-04-10T09:37:12;8.53;;;7.63;;
12719;SDS011;6424;48.520;11.228;2023-04-10T09:39:57;8.83;;;7.97;;
12719;SDS011;6424;48.520;11.228;2023-04-10T09:42:30;8.50;;;7.70;;
12719;SDS011;6424;48.520;11.228;2023-04-10T09:45:18;8.77;;;7.50;;
12719;SDS011;6424;48.520;11.228;2023-04-10T09:48:00;9.53;;;8.37;;
12719;SDS011;6424;48.520;11.228;2023-04-10T09:50:42;9.60;;;8.67;;
12719;SDS011;6424;48.520;11.228;2023-04-10T09:53:13;8.40;;;7.60;;
12719;SDS011;6424;48.520;11.228;2023-04-10T09:55:58;8.70;;;7.80;;
12719;SDS011;6424;48.520;11.228;2023-04-10T09:58:40;8.07;;;7.27;;
12719;SDS011;6424;48.520;11.228;2023-04-10T10:01:21;8.80;;;7.90;;
12719;SDS011;6424;48.520;11.228;2023-04-10T10:04:02;10.07;;;9.07;;
12719;SDS011;6424;48.520;11.228;2023-04-10T10:06:44;10.00;;;9.00;;
12719;SDS011;6424;48.520;11.228;2023-04-10T10:09:25;9.57;;;8.53;;
12719;SDS011;6424;48.520;11.228;2023-04-10T10:12:08;9.70;;;8.70;;
12719;SDS011;6424;48.520;11.228;2023-04-10T10:18:35;8.93;;;7.90;;
12719;SDS011;6424;48.520;11.228;2023-04-10T10:21:23;8.50;;;7.70;;
12719;SDS011;6424;48.520;11.228;2023-04-10T10:24:07;8.83;;;7.93;;
12719;SDS011;6424;48.520;11.228;2023-04-10T10:26:48;7.73;;;6.93;;
12719;SDS011;6424;48.520;11.228;2023-04-10T10:29:31;7.90;;;7.10;;
12719;SDS011;6424;48.520;11.228;2023-04-10T10:32:13;8.00;;;7.00;;
12719;SDS011;6424;48.520;11.228;2023-04-10T10:34:56;7.50;;;6.80;;
12719;SDS011;6424;48.520;11.228;2023-04-10T10:37:38;7.30;;;6.60;;
12719;SDS011;6424;48.520;11.228;2023-04-10T10:43:26;6.97;;;6.27;;
12719;SDS011;6424;48.520;11.228;2023-04-10T10:46:34;7.60;;;6.80;;
12719;SDS011;6424;48.520;11.228;2023-04-10T10:52:39;8.00;;;7.17;;
12719;SDS011;6424;48.520;11.228;2023-04-10T10:58:10;8.33;;;7.53;;
12719;SDS011;6424;48.520;11.228;2023-04-10T11:03:34;8.17;;;7.27;;
12719;SDS011;6424;48.520;11.228;2023-04-10T11:06:15;7.83;;;7.03;;
12719;SDS011;6424;48.520;11.228;2023-04-10T11:09:00;9.20;;;7.43;;
12719;SDS011;6424;48.520;11.228;2023-04-10T11:11:57;9.10;;;8.20;;
12719;SDS011;6424;48.520;11.228;2023-04-10T11:14:43;7.77;;;7.00;;
12719;SDS011;6424;48.520;11.228;2023-04-10T11:17:51;7.90;;;7.10;;
12719;SDS011;6424;48.520;11.228;2023-04-10T11:20:33;7.97;;;7.17;;
12719;SDS011;6424;48.520;11.228;2023-04-10T11:24:10;7.20;;;6.53;;
12719;SDS011;6424;48.520;11.228;2023-04-10T11:26:51;7.10;;;6.40;;
12719;SDS011;6424;48.520;11.228;2023-04-10T11:29:32;6.67;;;6.03;;
12719;SDS011;6424;48.520;11.228;2023-04-10T11:32:13;9.10;;;7.70;;
12719;SDS011;6424;48.520;11.228;2023-04-10T11:34:54;7.87;;;7.10;;
12719;SDS011;6424;48.520;11.228;2023-04-10T11:37:35;8.20;;;7.40;;
12719;SDS011;6424;48.520;11.228;2023-04-10T11:40:16;8.17;;;7.37;;
12719;SDS011;6424;48.520;11.228;2023-04-10T11:43:10;7.50;;;6.80;;
12719;SDS011;6424;48.520;11.228;2023-04-10T11:45:39;7.00;;;6.30;;
12719;SDS011;6424;48.520;11.228;2023-04-10T11:48:19;7.87;;;7.07;;
12719;SDS011;6424;48.520;11.228;2023-04-10T11:51:10;7.57;;;6.63;;
12719;SDS011;6424;48.520;11.228;2023-04-10T11:54:11;7.47;;;6.70;;
12719;SDS011;6424;48.520;11.228;2023-04-10T11:59:38;8.07;;;7.17;;
12719;SDS011;6424;48.520;11.228;2023-04-10T12:02:19;7.53;;;6.83;;
12719;SDS011;6424;48.520;11.228;2023-04-10T12:05:00;7.83;;;7.10;;
12719;SDS011;6424;48.520;11.228;2023-04-10T12:07:41;7.10;;;6.40;;
12719;SDS011;6424;48.520;11.228;2023-04-10T12:10:22;6.83;;;6.17;;
12719;SDS011;6424;48.520;11.228;2023-04-10T12:13:04;7.23;;;6.53;;
12719;SDS011;6424;48.520;11.228;2023-04-10T12:15:45;8.27;;;6.97;;
12719;SDS011;6424;48.520;11.228;2023-04-10T12:18:27;7.43;;;6.73;;
12719;SDS011;6424;48.520;11.228;2023-04-10T12:21:09;6.40;;;5.80;;
12719;SDS011;6424;48.520;11.228;2023-04-10T12:23:51;6.33;;;5.73;;
12719;SDS011;6424;48.520;11.228;2023-04-10T12:26:32;7.00;;;6.30;;
12719;SDS011;6424;48.520;11.228;2023-04-10T12:29:12;6.97;;;6.27;;
12719;SDS011;6424;48.520;11.228;2023-04-10T12:31:53;6.53;;;5.93;;
12719;SDS011;6424;48.520;11.228;2023-04-10T12:34:35;6.40;;;5.80;;
12719;SDS011;6424;48.520;11.228;2023-04-10T12:37:16;6.97;;;6.27;;
12719;SDS011;6424;48.520;11.228;2023-04-10T12:40:04;5.37;;;4.87;;
12719;SDS011;6424;48.520;11.228;2023-04-10T12:42:46;5.80;;;5.20;;
12719;SDS011;6424;48.520;11.228;2023-04-10T12:45:43;6.03;;;5.43;;
12719;SDS011;6424;48.520;11.228;2023-04-10T12:48:24;5.10;;;4.67;;
12719;SDS011;6424;48.520;11.228;2023-04-10T12:51:05;5.27;;;4.80;;
12719;SDS011;6424;48.520;11.228;2023-04-10T12:53:46;5.30;;;4.80;;
12719;SDS011;6424;48.520;11.228;2023-04-10T12:56:27;6.40;;;5.80;;
12719;SDS011;6424;48.520;11.228;2023-04-10T12:59:23;6.00;;;5.40;;
12719;SDS011;6424;48.520;11.228;2023-04-10T13:02:04;5.73;;;5.13;;
12719;SDS011;6424;48.520;11.228;2023-04-10T13:04:44;6.30;;;5.70;;
12719;SDS011;6424;48.520;11.228;2023-04-10T13:07:25;6.80;;;6.10;;
12719;SDS011;6424;48.520;11.228;2023-04-10T13:10:07;6.53;;;5.93;;
12719;SDS011;6424;48.520;11.228;2023-04-10T13:12:48;5.67;;;5.17;;
12719;SDS011;6424;48.520;11.228;2023-04-10T13:15:28;6.00;;;5.40;;
12719;SDS011;6424;48.520;11.228;2023-04-10T13:18:09;6.43;;;5.83;;
12719;SDS011;6424;48.520;11.228;2023-04-10T13:20:50;7.47;;;6.53;;
12719;SDS011;6424;48.520;11.228;2023-04-10T13:23:31;6.70;;;6.10;;
12719;SDS011;6424;48.520;11.228;2023-04-10T13:25:57;7.33;;;6.07;;
12719;SDS011;6424;48.520;11.228;2023-04-10T13:28:38;7.10;;;5.77;;
12719;SDS011;6424;48.520;11.228;2023-04-10T13:31:18;6.97;;;6.27;;
12719;SDS011;6424;48.520;11.228;2023-04-10T13:33:59;6.17;;;5.57;;
12719;SDS011;6424;48.520;11.228;2023-04-10T13:36:25;6.10;;;5.50;;
12719;SDS011;6424;48.520;11.228;2023-04-10T13:39:06;6.37;;;5.80;;
12719;SDS011;6424;48.520;11.228;2023-04-10T13:41:47;7.20;;;6.17;;
12719;SDS011;6424;48.520;11.228;2023-04-10T13:44:27;5.80;;;5.23;;
12719;SDS011;6424;48.520;11.228;2023-04-10T13:47:08;5.83;;;5.30;;
12719;SDS011;6424;48.520;11.228;2023-04-10T13:49:49;6.27;;;5.67;;
12719;SDS011;6424;48.520;11.228;2023-04-10T13:52:30;6.60;;;5.93;;
12719;SDS011;6424;48.520;11.228;2023-04-10T13:55:11;6.00;;;5.40;;
12719;SDS011;6424;48.520;11.228;2023-04-10T13:57:51;5.97;;;5.37;;
12719;SDS011;6424;48.520;11.228;2023-04-10T14:00:32;5.97;;;5.37;;
12719;SDS011;6424;48.520;11.228;2023-04-10T14:03:13;5.40;;;4.90;;
12719;SDS011;6424;48.520;11.228;2023-04-10T14:05:39;5.57;;;5.07;;
12719;SDS011;6424;48.520;11.228;2023-04-10T14:08:20;6.30;;;5.70;;
12719;SDS011;6424;48.520;11.228;2023-04-10T14:11:00;5.50;;;5.00;;
12719;SDS011;6424;48.520;11.228;2023-04-10T14:13:41;5.80;;;5.20;;
12719;SDS011;6424;48.520;11.228;2023-04-10T14:16:22;4.90;;;4.40;;
12719;SDS011;6424;48.520;11.228;2023-04-10T14:19:03;5.87;;;5.10;;
12719;SDS011;6424;48.520;11.228;2023-04-10T14:21:43;5.80;;;5.20;;
12719;SDS011;6424;48.520;11.228;2023-04-10T14:24:24;5.20;;;4.70;;
12719;SDS011;6424;48.520;11.228;2023-04-10T14:27:05;4.93;;;4.53;;
12719;SDS011;6424;48.520;11.228;2023-04-10T14:29:31;5.23;;;4.20;;
12719;SDS011;6424;48.520;11.228;2023-04-10T14:32:11;5.00;;;4.50;;
12719;SDS011;6424;48.520;11.228;2023-04-10T14:34:52;5.00;;;4.50;;
12719;SDS011;6424;48.520;11.228;2023-04-10T14:37:33;4.70;;;4.27;;
12719;SDS011;6424;48.520;11.228;2023-04-10T14:40:14;5.10;;;3.80;;
12719;SDS011;6424;48.520;11.228;2023-04-10T14:42:55;4.93;;;4.20;;
12719;SDS011;6424;48.520;11.228;2023-04-10T14:45:36;4.43;;;4.03;;
12719;SDS011;6424;48.520;11.228;2023-04-10T14:48:16;4.40;;;4.00;;
12719;SDS011;6424;48.520;11.228;2023-04-10T14:50:58;4.87;;;4.47;;
12719;SDS011;6424;48.520;11.228;2023-04-10T14:53:40;4.57;;;4.10;;
12719;SDS011;6424;48.520;11.228;2023-04-10T14:56:21;4.93;;;4.50;;
12719;SDS011;6424;48.520;11.228;2023-04-10T14:59:02;4.63;;;4.10;;
12719;SDS011;6424;48.520;11.228;2023-04-10T15:01:43;4.37;;;3.97;;
12719;SDS011;6424;48.520;11.228;2023-04-10T15:04:24;4.07;;;3.67;;
12719;SDS011;6424;48.520;11.228;2023-04-10T15:07:05;4.20;;;3.80;;
12719;SDS011;6424;48.520;11.228;2023-04-10T15:09:46;5.37;;;4.73;;
12719;SDS011;6424;48.520;11.228;2023-04-10T15:12:12;4.67;;;4.27;;
12719;SDS011;6424;48.520;11.228;2023-04-10T15:14:52;3.80;;;3.50;;
12719;SDS011;6424;48.520;11.228;2023-04-10T15:17:33;5.17;;;3.73;;
12719;SDS011;6424;48.520;11.228;2023-04-10T15:19:59;3.90;;;3.60;;
12719;SDS011;6424;48.520;11.228;2023-04-10T15:22:40;4.07;;;3.67;;
12719;SDS011;6424;48.520;11.228;2023-04-10T15:25:24;4.20;;;3.67;;
12719;SDS011;6424;48.520;11.228;2023-04-10T15:28:05;4.80;;;3.90;;
12719;SDS011;6424;48.520;11.228;2023-04-10T15:30:47;3.57;;;3.27;;
12719;SDS011;6424;48.520;11.228;2023-04-10T15:33:14;3.80;;;3.40;;
12719;SDS011;6424;48.520;11.228;2023-04-10T15:35:56;4.10;;;3.70;;
12719;SDS011;6424;48.520;11.228;2023-04-10T15:38:36;3.77;;;3.40;;
12719;SDS011;6424;48.520;11.228;2023-04-10T15:41:17;3.43;;;3.13;;
12719;SDS011;6424;48.520;11.228;2023-04-10T15:43:58;3.83;;;3.43;;
12719;SDS011;6424;48.520;11.228;2023-04-10T15:46:39;4.00;;;3.60;;
12719;SDS011;6424;48.520;11.228;2023-04-10T15:49:20;3.90;;;3.37;;
12719;SDS011;6424;48.520;11.228;2023-04-10T15:52:01;3.60;;;3.10;;
12719;SDS011;6424;48.520;11.228;2023-04-10T15:54:42;3.70;;;3.33;;
12719;SDS011;6424;48.520;11.228;2023-04-10T15:57:23;3.50;;;3.10;;
12719;SDS011;6424;48.520;11.228;2023-04-10T16:00:04;3.20;;;2.90;;
12719;SDS011;6424;48.520;11.228;2023-04-10T16:02:45;3.37;;;3.07;;
12719;SDS011;6424;48.520;11.228;2023-04-10T16:05:26;3.67;;;3.10;;
12719;SDS011;6424;48.520;11.228;2023-04-10T16:08:08;3.30;;;3.00;;
12719;SDS011;6424;48.520;11.228;2023-04-10T16:10:49;3.27;;;2.97;;
12719;SDS011;6424;48.520;11.228;2023-04-10T16:13:30;3.40;;;3.00;;
12719;SDS011;6424;48.520;11.228;2023-04-10T16:15:56;3.87;;;3.03;;
12719;SDS011;6424;48.520;11.228;2023-04-10T16:18:36;3.20;;;2.90;;
12719;SDS011;6424;48.520;11.228;2023-04-10T16:21:17;3.47;;;3.03;;
12719;SDS011;6424;48.520;11.228;2023-04-10T16:24:00;3.77;;;2.93;;
12719;SDS011;6424;48.520;11.228;2023-04-10T16:26:41;3.27;;;2.97;;
12719;SDS011;6424;48.520;11.228;2023-04-10T16:29:21;3.00;;;2.80;;
12719;SDS011;6424;48.520;11.228;2023-04-10T16:32:02;2.80;;;2.57;;